Time;durP1;ratioP1;P1;durP2;ratioP2;P2;SDS_P1;SDS_P2;PMS_P1;PMS_P2;Temp;Humidity;BMP_temperature;BMP_pressure;BME280_temperature;BME280_humidity;BME280_pressure;Samples;Min_cycle;Max_cycle;Signal;HPM_P1;HPM_P2
2023/10/22 00:00:44;;;;;;;5.93;3.85;;;11.00;82.20;;;;;;5054832;28;20025;-72
2023/10/22 00:03:09;;;;;;;5.35;3.25;;;11.00;82.20;;;;;;5053915;28;20119;-72
2023/10/22 00:05:35;;;;;;;6.47;3.70;;;11.00;82.20;;;;;;5054709;28;20517;-72
2023/10/22 00:08:01;;;;;;;6.53;3.83;;;11.00;82.10;;;;;;5054758;28;20033;-72
2023/10/22 00:10:27;;;;;;;4.80;4.20;;;11.00;82.10;;;;;;5055166;28;20143;-73
2023/10/22 00:12:53;;;;;;;7.05;4.55;;;11.00;82.20;;;;;;5055080;28;20039;-73
2023/10/22 00:15:20;;;;;;;5.28;4.03;;;11.00;82.00;;;;;;5054535;28;20497;-72
2023/10/22 00:17:46;;;;;;;5.55;3.88;;;11.00;81.80;;;;;;5054530;28;20021;-72
2023/10/22 00:20:12;;;;;;;3.70;2.80;;;11.00;81.80;;;;;;5054513;28;20036;-73
2023/10/22 00:22:38;;;;;;;4.28;3.03;;;11.00;80.80;;;;;;5054377;28;20029;-72
2023/10/22 00:25:05;;;;;;;10.15;4.95;;;11.00;80.10;;;;;;5054401;28;20025;-73
2023/10/22 00:27:32;;;;;;;4.78;2.72;;;11.10;80.10;;;;;;5054250;28;20052;-73
2023/10/22 00:29:58;;;;;;;5.22;2.83;;;11.10;80.10;;;;;;5054350;28;20424;-72
2023/10/22 00:32:24;;;;;;;3.75;2.60;;;11.10;80.10;;;;;;5054143;28;20025;-73
2023/10/22 00:34:49;;;;;;;2.88;2.35;;;11.10;79.70;;;;;;5054078;28;20075;-72
2023/10/22 00:37:15;;;;;;;2.95;2.08;;;11.20;79.40;;;;;;5052553;28;20048;-72
2023/10/22 00:39:41;;;;;;;5.00;2.47;;;11.20;79.50;;;;;;5053534;28;20381;-72
2023/10/22 00:42:07;;;;;;;4.07;2.40;;;11.20;79.80;;;;;;5054036;28;20371;-72
2023/10/22 00:44:34;;;;;;;5.60;3.15;;;11.20;79.80;;;;;;5053693;28;20044;-72
2023/10/22 00:47:00;;;;;;;3.70;2.90;;;11.20;79.70;;;;;;5054039;28;20021;-73
2023/10/22 00:49:26;;;;;;;4.05;2.83;;;11.20;79.80;;;;;;5053830;28;20484;-72
2023/10/22 00:51:52;;;;;;;3.67;2.50;;;11.20;79.50;;;;;;5053782;28;20028;-73
2023/10/22 00:54:19;;;;;;;4.25;2.45;;;11.30;79.10;;;;;;5053784;28;20032;-72
2023/10/22 00:56:46;;;;;;;3.38;2.40;;;11.30;77.90;;;;;;5053849;28;20062;-73
2023/10/22 00:59:12;;;;;;;4.18;2.78;;;11.40;78.20;;;;;;5054069;28;20021;-72
2023/10/22 01:01:38;;;;;;;5.07;3.22;;;11.40;78.40;;;;;;5053878;28;20381;-72
2023/10/22 01:04:04;;;;;;;3.85;2.60;;;11.40;78.30;;;;;;5053602;28;20103;-73
2023/10/22 01:06:30;;;;;;;4.30;3.17;;;11.40;78.10;;;;;;5053397;28;20025;-73
2023/10/22 01:08:57;;;;;;;2.90;2.40;;;11.50;78.00;;;;;;5053696;28;20025;-73
2023/10/22 01:11:22;;;;;;;2.72;2.30;;;11.50;77.80;;;;;;5053793;28;20075;-74
2023/10/22 01:13:48;;;;;;;5.25;2.58;;;11.40;77.10;;;;;;5053501;28;20029;-73
2023/10/22 01:16:14;;;;;;;5.53;2.60;;;11.50;77.40;;;;;;5053391;28;20032;-73
2023/10/22 01:18:39;;;;;;;4.55;2.15;;;11.40;77.30;;;;;;5053307;28;20033;-73
2023/10/22 01:21:05;;;;;;;3.17;2.42;;;11.40;77.40;;;;;;5053142;28;20029;-72
2023/10/22 01:23:37;;;;;;;3.28;2.25;;;11.40;77.70;;;;;;5053159;28;20041;-71
2023/10/22 01:26:06;;;;;;;5.47;3.17;;;11.40;78.10;;;;;;5053438;28;20021;-72
2023/10/22 01:28:35;;;;;;;3.30;2.30;;;11.30;78.60;;;;;;5053247;28;20120;-72
2023/10/22 01:31:04;;;;;;;6.28;2.90;;;11.30;79.00;;;;;;5053083;28;20025;-71
2023/10/22 01:33:30;;;;;;;3.72;2.60;;;11.20;80.10;;;;;;5052972;28;20548;-72
2023/10/22 01:35:55;;;;;;;4.80;2.47;;;11.20;79.50;;;;;;5053396;28;20021;-72
2023/10/22 01:38:21;;;;;;;3.17;2.53;;;11.10;79.60;;;;;;5051674;28;20067;-72
2023/10/22 01:40:47;;;;;;;4.20;2.47;;;11.10;79.70;;;;;;5051669;28;20049;-72
2023/10/22 01:43:13;;;;;;;3.70;3.10;;;11.10;79.70;;;;;;5052873;28;20036;-72
2023/10/22 01:45:39;;;;;;;5.75;4.15;;;11.10;79.80;;;;;;5052929;28;20104;-74
2023/10/22 01:48:05;;;;;;;5.40;3.47;;;11.10;79.90;;;;;;5052961;28;20106;-75
2023/10/22 01:50:32;;;;;;;3.40;3.10;;;11.00;79.80;;;;;;5052816;28;20021;-72
2023/10/22 01:52:57;;;;;;;5.43;3.40;;;11.00;80.20;;;;;;5052807;28;20104;-77
2023/10/22 01:55:23;;;;;;;5.90;3.28;;;10.90;80.40;;;;;;5052907;28;20057;-77
2023/10/22 01:57:48;;;;;;;4.57;3.30;;;10.90;80.60;;;;;;5053037;28;20029;-72
2023/10/22 02:00:14;;;;;;;4.57;3.33;;;10.90;80.70;;;;;;5052720;28;20032;-72
2023/10/22 02:02:40;;;;;;;4.88;3.70;;;10.90;80.90;;;;;;5052368;28;20412;-73
2023/10/22 02:05:06;;;;;;;4.30;3.30;;;10.80;80.90;;;;;;5052580;28;20033;-73
2023/10/22 02:07:32;;;;;;;4.50;3.50;;;10.80;81.10;;;;;;5052017;28;20036;-78
2023/10/22 02:09:57;;;;;;;4.05;3.65;;;10.80;81.10;;;;;;5053339;28;20022;-71
2023/10/22 02:12:27;;;;;;;3.88;3.47;;;10.80;81.30;;;;;;5053100;28;20087;-72
2023/10/22 02:14:53;;;;;;;5.53;3.65;;;10.80;81.40;;;;;;5051148;28;20032;-71
2023/10/22 02:17:18;;;;;;;5.20;3.70;;;10.70;81.40;;;;;;5052523;28;20033;-71
2023/10/22 02:19:44;;;;;;;5.53;4.15;;;10.70;81.60;;;;;;5052582;28;20056;-72
2023/10/22 02:22:09;;;;;;;5.88;4.13;;;10.70;81.80;;;;;;5052345;28;20170;-71
2023/10/22 02:24:35;;;;;;;7.55;4.10;;;10.70;81.80;;;;;;5052818;28;20094;-72
2023/10/22 02:27:00;;;;;;;5.75;4.25;;;10.70;81.80;;;;;;5052479;28;20033;-71
2023/10/22 02:29:26;;;;;;;3.97;3.45;;;10.60;81.90;;;;;;5052633;28;20025;-71
2023/10/22 02:31:51;;;;;;;5.00;3.90;;;10.60;82.00;;;;;;5052788;28;20051;-71
2023/10/22 02:34:17;;;;;;;3.75;3.45;;;10.60;81.90;;;;;;5052164;28;20045;-73
2023/10/22 02:36:43;;;;;;;8.13;4.65;;;10.60;81.90;;;;;;5052458;28;20087;-71
2023/10/22 02:39:11;;;;;;;6.90;5.00;;;10.50;82.00;;;;;;5052188;28;20013;-71
2023/10/22 02:41:37;;;;;;;5.65;4.55;;;10.60;82.00;;;;;;5052492;28;20059;-71
2023/10/22 02:44:02;;;;;;;5.28;3.70;;;10.50;82.10;;;;;;5052242;28;20454;-71
2023/10/22 02:46:28;;;;;;;4.47;3.60;;;10.50;82.10;;;;;;5052224;28;20104;-71
2023/10/22 02:48:54;;;;;;;6.55;3.50;;;10.40;82.10;;;;;;5051175;28;20385;-71
2023/10/22 02:51:20;;;;;;;7.53;4.95;;;10.40;81.90;;;;;;5032367;28;20025;-71
2023/10/22 02:53:45;;;;;;;6.15;4.38;;;10.40;81.20;;;;;;5033065;28;20038;-72
2023/10/22 02:56:11;;;;;;;4.00;3.55;;;10.30;81.60;;;;;;5031998;28;20025;-71
2023/10/22 02:58:40;;;;;;;5.45;4.03;;;10.30;81.50;;;;;;5032476;28;20033;-71
2023/10/22 03:01:07;;;;;;;4.78;3.30;;;10.40;81.50;;;;;;5032086;28;20493;-71
2023/10/22 03:03:38;;;;;;;4.13;2.13;;;10.40;81.60;;;;;;5030942;28;20397;-71
2023/10/22 03:06:04;;;;;;;4.38;2.72;;;10.40;79.00;;;;;;5032301;28;20042;-71
2023/10/22 03:08:31;;;;;;;3.58;2.20;;;10.40;79.20;;;;;;5031990;28;20032;-73
2023/10/22 03:10:56;;;;;;;4.13;2.72;;;10.50;79.20;;;;;;5032258;28;20076;-72
2023/10/22 03:13:22;;;;;;;4.57;3.00;;;10.40;79.50;;;;;;5032787;28;20053;-72
2023/10/22 03:15:47;;;;;;;5.82;3.50;;;10.40;79.90;;;;;;5035447;28;20028;-72
2023/10/22 03:18:13;;;;;;;4.22;3.53;;;10.40;80.30;;;;;;5033711;28;20052;-72
2023/10/22 03:20:39;;;;;;;8.15;3.97;;;10.30;80.80;;;;;;5036009;28;20101;-72
2023/10/22 03:23:06;;;;;;;4.95;3.88;;;10.20;81.40;;;;;;5050914;28;20121;-73
2023/10/22 03:25:33;;;;;;;4.55;3.53;;;10.10;81.90;;;;;;5034277;28;20455;-72
2023/10/22 03:28:00;;;;;;;3.63;3.25;;;10.00;82.10;;;;;;5035622;28;20108;-72
2023/10/22 03:30:26;;;;;;;4.53;2.95;;;10.00;82.20;;;;;;5035799;28;20041;-73
2023/10/22 03:32:54;;;;;;;3.50;3.10;;;10.00;82.10;;;;;;5035408;28;20025;-73
2023/10/22 03:35:19;;;;;;;5.82;3.40;;;10.00;82.20;;;;;;5035007;28;20104;-72
2023/10/22 03:37:45;;;;;;;6.72;3.20;;;10.00;81.90;;;;;;5035405;28;20025;-72
2023/10/22 03:40:11;;;;;;;4.78;3.15;;;9.90;81.80;;;;;;5035428;28;20072;-72
2023/10/22 03:42:37;;;;;;;4.47;3.10;;;9.90;81.80;;;;;;5035005;28;20072;-72
2023/10/22 03:45:03;;;;;;;3.17;2.88;;;9.80;82.00;;;;;;5035294;28;20029;-73
2023/10/22 03:47:28;;;;;;;4.35;3.17;;;9.80;81.90;;;;;;5035195;28;20128;-73
2023/10/22 03:49:54;;;;;;;4.80;2.97;;;9.80;81.90;;;;;;5035192;28;20108;-72
2023/10/22 03:52:20;;;;;;;3.30;2.80;;;9.80;81.90;;;;;;5034923;28;20094;-73
2023/10/22 03:54:46;;;;;;;7.47;3.17;;;9.80;81.40;;;;;;5034968;28;20028;-73
2023/10/22 03:57:11;;;;;;;4.93;2.70;;;9.80;81.70;;;;;;5035063;28;20037;-73
2023/10/22 03:59:37;;;;;;;4.82;2.90;;;9.70;81.90;;;;;;5050020;28;20026;-72
2023/10/22 04:02:02;;;;;;;3.85;2.97;;;9.60;82.10;;;;;;5034937;28;20390;-73
2023/10/22 04:04:28;;;;;;;3.88;2.55;;;9.60;82.20;;;;;;5033414;28;20074;-71
2023/10/22 04:06:53;;;;;;;4.15;3.20;;;9.60;82.40;;;;;;5034662;28;20034;-73
2023/10/22 04:09:19;;;;;;;7.30;3.15;;;9.60;82.70;;;;;;5034862;28;20033;-74
2023/10/22 04:11:44;;;;;;;5.07;3.50;;;9.50;82.60;;;;;;5034821;28;20025;-73
2023/10/22 04:14:10;;;;;;;4.68;3.20;;;9.50;82.80;;;;;;5034757;28;20025;-73
2023/10/22 04:16:36;;;;;;;5.10;3.17;;;9.40;82.70;;;;;;5035134;28;20021;-73
2023/10/22 04:19:01;;;;;;;4.13;3.08;;;9.40;83.10;;;;;;5049824;28;20033;-73
2023/10/22 04:21:27;;;;;;;3.72;3.08;;;9.30;83.50;;;;;;5033047;28;20025;-72
2023/10/22 04:23:52;;;;;;;7.05;3.20;;;9.30;83.40;;;;;;5034293;28;20034;-73
2023/10/22 04:26:18;;;;;;;4.25;2.72;;;9.20;83.30;;;;;;5034494;28;20493;-73
2023/10/22 04:28:45;;;;;;;3.75;2.50;;;9.30;83.40;;;;;;5034237;28;20033;-72
2023/10/22 04:31:10;;;;;;;4.00;2.22;;;9.30;83.20;;;;;;5032409;28;20040;-72
2023/10/22 04:33:36;;;;;;;5.00;2.65;;;9.20;83.20;;;;;;5034177;28;20049;-80
2023/10/22 04:36:02;;;;;;;7.50;2.30;;;9.20;83.20;;;;;;5034387;28;20116;-74
2023/10/22 04:38:29;;;;;;;5.82;2.50;;;9.20;83.00;;;;;;5034079;28;20104;-73
2023/10/22 04:40:55;;;;;;;6.03;2.33;;;9.20;82.90;;;;;;5034436;28;20439;-73
2023/10/22 04:43:21;;;;;;;5.63;2.55;;;9.20;83.00;;;;;;5034199;28;20057;-73
2023/10/22 04:45:48;;;;;;;5.10;1.90;;;9.20;82.90;;;;;;5034270;28;20137;-73
2023/10/22 04:48:14;;;;;;;5.28;2.20;;;9.20;82.90;;;;;;5034291;28;20026;-72
2023/10/22 04:50:41;;;;;;;7.55;2.70;;;9.10;82.80;;;;;;5034221;28;20377;-72
2023/10/22 04:53:06;;;;;;;6.22;2.85;;;9.00;83.00;;;;;;5034008;28;20517;-72
2023/10/22 04:55:32;;;;;;;5.60;2.92;;;8.90;83.30;;;;;;5032750;28;20124;-72
2023/10/22 04:57:58;;;;;;;5.38;3.22;;;8.80;83.60;;;;;;5033911;28;20040;-73
2023/10/22 05:00:23;;;;;;;6.68;2.97;;;8.80;83.40;;;;;;5033798;28;20018;-73
2023/10/22 05:02:49;;;;;;;5.80;2.95;;;8.80;83.50;;;;;;5033682;28;20036;-72
2023/10/22 05:05:15;;;;;;;6.72;2.30;;;8.70;83.80;;;;;;5033954;28;20021;-72
2023/10/22 05:07:41;;;;;;;3.85;2.15;;;8.70;83.80;;;;;;5033831;28;20075;-72
2023/10/22 05:10:07;;;;;;;5.38;2.80;;;8.60;83.80;;;;;;5033746;28;20097;-70
2023/10/22 05:12:32;;;;;;;5.00;2.20;;;8.60;84.00;;;;;;5033684;28;20033;-70
2023/10/22 05:14:58;;;;;;;4.15;2.50;;;8.70;84.20;;;;;;5032387;28;20030;-70
2023/10/22 05:17:24;;;;;;;6.18;2.40;;;8.70;84.30;;;;;;5033592;28;20025;-71
2023/10/22 05:19:50;;;;;;;2.72;1.70;;;8.70;84.10;;;;;;5033439;28;20056;-71
2023/10/22 05:22:17;;;;;;;5.28;1.90;;;8.70;84.00;;;;;;5033245;28;20064;-71
2023/10/22 05:24:48;;;;;;;6.35;2.13;;;8.80;83.70;;;;;;5033779;28;20037;-72
2023/10/22 05:27:15;;;;;;;3.65;1.80;;;8.70;83.40;;;;;;5033382;28;20116;-72
2023/10/22 05:29:42;;;;;;;5.93;2.25;;;8.70;83.10;;;;;;5033416;28;20021;-72
2023/10/22 05:32:08;;;;;;;5.97;2.22;;;8.70;83.20;;;;;;5033318;28;20048;-72
2023/10/22 05:34:33;;;;;;;3.60;2.10;;;8.70;83.20;;;;;;5033161;28;20494;-73
2023/10/22 05:36:59;;;;;;;1.88;1.67;;;8.70;83.40;;;;;;5033312;28;20039;-72
2023/10/22 05:39:25;;;;;;;6.82;2.38;;;8.60;83.50;;;;;;5033271;28;20501;-72
2023/10/22 05:41:50;;;;;;;7.05;2.30;;;8.70;83.50;;;;;;5032153;28;20068;-73
2023/10/22 05:44:16;;;;;;;5.85;2.00;;;8.70;83.30;;;;;;5033162;28;20032;-74
2023/10/22 05:46:41;;;;;;;2.85;1.85;;;8.70;83.10;;;;;;5048440;28;20402;-74
2023/10/22 05:49:09;;;;;;;5.13;2.17;;;8.70;82.70;;;;;;5032918;28;20041;-72
2023/10/22 05:51:35;;;;;;;4.68;1.90;;;8.60;82.30;;;;;;5033186;28;20025;-72
2023/10/22 05:54:03;;;;;;;4.18;2.22;;;8.60;82.50;;;;;;5031905;28;20033;-71
2023/10/22 05:56:29;;;;;;;3.25;1.95;;;8.70;82.50;;;;;;5033345;28;20359;-72
2023/10/22 05:58:55;;;;;;;4.68;2.10;;;8.70;82.30;;;;;;5033351;28;20018;-73
2023/10/22 06:01:20;;;;;;;4.72;2.10;;;8.70;82.10;;;;;;5033378;28;20039;-71
2023/10/22 06:03:46;;;;;;;4.85;2.42;;;8.70;82.00;;;;;;5033116;28;20025;-72
2023/10/22 06:06:12;;;;;;;4.38;2.08;;;8.70;81.90;;;;;;5033262;28;20152;-75
2023/10/22 06:08:37;;;;;;;5.38;3.45;;;8.70;81.50;;;;;;5033055;28;20466;-73
2023/10/22 06:11:04;;;;;;;5.18;3.08;;;8.70;81.50;;;;;;5033187;28;20112;-71
2023/10/22 06:13:30;;;;;;;5.03;2.58;;;8.70;81.40;;;;;;5031984;28;20534;-71
2023/10/22 06:15:57;;;;;;;4.65;2.60;;;8.70;81.30;;;;;;5033055;28;20029;-71
2023/10/22 06:18:23;;;;;;;3.17;2.60;;;8.60;81.10;;;;;;5032739;28;20096;-75
2023/10/22 06:20:49;;;;;;;5.78;2.55;;;8.60;81.50;;;;;;5032805;28;20064;-71
2023/10/22 06:23:15;;;;;;;3.83;2.20;;;8.60;81.70;;;;;;5032810;28;20466;-71
2023/10/22 06:25:43;;;;;;;5.07;2.65;;;8.60;81.80;;;;;;5032869;28;20022;-71
2023/10/22 06:28:08;;;;;;;4.20;2.58;;;8.60;81.70;;;;;;5032710;28;20109;-72
2023/10/22 06:30:34;;;;;;;3.33;2.50;;;8.70;81.80;;;;;;5031338;28;20414;-71
2023/10/22 06:32:59;;;;;;;4.28;2.63;;;8.70;81.60;;;;;;5032638;28;20083;-72
2023/10/22 06:35:29;;;;;;;3.95;2.42;;;8.70;81.40;;;;;;5032775;28;20025;-72
2023/10/22 06:37:55;;;;;;;5.07;2.65;;;8.70;81.20;;;;;;5032620;28;20030;-71
2023/10/22 06:40:22;;;;;;;4.53;2.35;;;8.70;81.30;;;;;;5032486;28;20157;-73
2023/10/22 06:42:48;;;;;;;3.50;2.10;;;8.70;81.30;;;;;;5032600;28;20461;-75
2023/10/22 06:45:14;;;;;;;4.88;2.45;;;8.70;81.10;;;;;;5032463;28;20390;-73
2023/10/22 06:47:40;;;;;;;5.32;2.55;;;8.80;80.90;;;;;;5032470;28;20024;-72
2023/10/22 06:50:08;;;;;;;5.45;2.38;;;8.80;81.20;;;;;;5032756;28;20029;-71
2023/10/22 06:52:34;;;;;;;4.50;2.42;;;8.90;80.50;;;;;;5032596;28;20036;-71
2023/10/22 06:55:00;;;;;;;3.63;2.13;;;8.90;80.40;;;;;;5036401;28;20159;-71
2023/10/22 06:57:26;;;;;;;3.10;1.90;;;9.00;80.50;;;;;;5036287;28;20160;-71
2023/10/22 06:59:52;;;;;;;4.55;2.30;;;9.10;80.40;;;;;;5036195;28;20053;-71
2023/10/22 07:02:19;;;;;;;4.93;2.13;;;9.20;80.00;;;;;;5036294;28;20410;-71
2023/10/22 07:04:47;;;;;;;2.65;1.70;;;9.20;79.40;;;;;;5036105;28;20020;-71
2023/10/22 07:07:13;;;;;;;2.92;2.22;;;9.30;79.30;;;;;;5036333;28;20029;-72
2023/10/22 07:09:38;;;;;;;5.05;2.30;;;9.40;78.40;;;;;;5036065;28;20022;-71
2023/10/22 07:12:04;;;;;;;3.20;2.00;;;9.50;78.40;;;;;;5035903;28;20025;-72
2023/10/22 07:14:30;;;;;;;4.45;2.50;;;9.60;78.10;;;;;;5035935;28;20053;-72
2023/10/22 07:16:56;;;;;;;3.63;2.10;;;9.60;77.60;;;;;;5051425;28;20057;-70
2023/10/22 07:19:22;;;;;;;4.85;2.38;;;9.70;77.70;;;;;;5036070;28;20080;-74
2023/10/22 07:21:47;;;;;;;4.93;2.08;;;9.70;77.10;;;;;;5035786;28;20478;-72
2023/10/22 07:24:13;;;;;;;3.72;2.80;;;9.80;77.00;;;;;;5051190;28;20358;-73
2023/10/22 07:26:38;;;;;;;5.30;2.75;;;9.90;76.70;;;;;;5035951;28;20573;-70
2023/10/22 07:29:04;;;;;;;3.92;2.47;;;10.00;76.50;;;;;;5035638;28;20032;-71
2023/10/22 07:31:30;;;;;;;5.45;2.53;;;10.10;76.20;;;;;;5035323;28;20104;-71
2023/10/22 07:33:55;;;;;;;4.20;1.52;;;10.20;75.70;;;;;;5040360;28;20050;-74
2023/10/22 07:36:21;;;;;;;5.72;2.25;;;10.40;70.80;;;;;;5034842;28;20064;-73
2023/10/22 07:38:51;;;;;;;6.97;1.40;;;10.70;73.10;;;;;;5036066;28;20084;-76
2023/10/22 07:41:18;;;;;;;2.90;0.65;;;11.10;67.90;;;;;;5034255;28;20040;-73
2023/10/22 07:43:44;;;;;;;7.03;1.58;;;11.30;66.90;;;;;;5035791;28;20036;-71
2023/10/22 07:46:10;;;;;;;3.92;1.00;;;11.50;66.70;;;;;;5036364;28;20100;-72
2023/10/22 07:48:36;;;;;;;3.97;0.90;;;11.70;64.80;;;;;;5035420;28;20632;-72
2023/10/22 07:51:09;;;;;;;1.83;0.73;;;11.70;64.80;;;;;;5035579;28;20033;-72
2023/10/22 07:53:35;;;;;;;3.13;0.98;;;11.80;65.10;;;;;;5035443;28;20386;-73
2023/10/22 07:56:00;;;;;;;4.72;1.25;;;11.90;63.80;;;;;;5039854;28;20056;-73
2023/10/22 07:58:26;;;;;;;4.90;1.10;;;12.00;63.60;;;;;;5038372;28;20033;-77
2023/10/22 08:00:51;;;;;;;4.30;1.13;;;12.10;62.20;;;;;;5038907;28;20029;-73
2023/10/22 08:03:17;;;;;;;4.07;0.88;;;12.10;63.20;;;;;;5035466;28;20061;-72
2023/10/22 08:05:42;;;;;;;2.50;0.90;;;12.20;62.30;;;;;;5034846;28;20057;-73
2023/10/22 08:08:08;;;;;;;5.38;0.93;;;12.30;61.40;;;;;;5047319;28;20440;-72
2023/10/22 08:10:33;;;;;;;6.07;1.00;;;12.40;63.00;;;;;;5056490;28;20086;-73
2023/10/22 08:12:59;;;;;;;3.85;1.00;;;12.50;60.90;;;;;;5056037;28;20017;-72
2023/10/22 08:15:24;;;;;;;5.82;1.00;;;12.40;62.00;;;;;;5055407;28;20082;-73
2023/10/22 08:17:50;;;;;;;4.72;0.93;;;12.40;61.20;;;;;;5055042;28;20431;-77
2023/10/22 08:20:16;;;;;;;4.72;1.17;;;12.50;60.30;;;;;;5054726;28;20485;-73
2023/10/22 08:22:41;;;;;;;3.40;1.00;;;12.50;60.00;;;;;;5055047;28;20040;-74
2023/10/22 08:25:07;;;;;;;5.90;1.35;;;12.50;60.00;;;;;;5054362;28;20048;-73
2023/10/22 08:27:33;;;;;;;4.80;2.10;;;12.50;60.30;;;;;;5054319;28;20397;-74
2023/10/22 08:29:59;;;;;;;3.22;0.90;;;12.60;60.50;;;;;;5054472;28;20053;-73
2023/10/22 08:32:25;;;;;;;3.92;0.95;;;12.60;59.50;;;;;;5054369;28;20068;-75
2023/10/22 08:34:50;;;;;;;4.35;0.90;;;12.60;59.20;;;;;;5054445;28;20045;-74
2023/10/22 08:37:16;;;;;;;4.63;1.17;;;12.70;59.00;;;;;;5052929;28;20032;-77
2023/10/22 08:39:42;;;;;;;4.13;1.27;;;12.70;59.10;;;;;;5054087;28;20126;-75
2023/10/22 08:42:11;;;;;;;4.15;0.75;;;12.80;59.20;;;;;;5054262;28;20117;-74
2023/10/22 08:44:46;;;;;;;3.83;0.90;;;12.80;57.90;;;;;;5054174;28;20466;-73
2023/10/22 08:47:12;;;;;;;5.20;1.35;;;12.90;58.00;;;;;;5054248;28;20025;-71
2023/10/22 08:49:41;;;;;;;5.63;1.15;;;13.00;57.40;;;;;;5054369;28;20059;-73
2023/10/22 08:52:10;;;;;;;1.85;0.70;;;13.10;57.50;;;;;;5054035;28;20029;-73
2023/10/22 08:54:36;;;;;;;2.33;0.80;;;13.10;57.00;;;;;;5053647;28;20488;-72
2023/10/22 08:57:02;;;;;;;3.65;0.60;;;13.10;57.20;;;;;;5053836;28;20401;-72
2023/10/22 08:59:35;;;;;;;3.15;0.90;;;13.30;56.40;;;;;;5053846;28;20021;-72
2023/10/22 09:02:03;;;;;;;3.97;0.63;;;13.50;55.60;;;;;;5052792;28;20037;-71
2023/10/22 09:04:32;;;;;;;3.33;0.80;;;13.60;54.70;;;;;;5053965;28;20031;-72
2023/10/22 09:06:58;;;;;;;3.15;0.75;;;13.60;54.30;;;;;;5053837;28;20027;-73
2023/10/22 09:09:34;;;;;;;1.65;0.60;;;13.70;54.30;;;;;;5053701;28;20025;-73
2023/10/22 09:12:00;;;;;;;3.63;1.08;;;13.70;54.80;;;;;;5053697;28;20381;-74
2023/10/22 09:14:26;;;;;;;3.65;0.85;;;13.90;53.10;;;;;;5053758;28;20092;-75
2023/10/22 09:16:51;;;;;;;2.08;0.50;;;13.80;53.40;;;;;;5053276;28;20075;-73
2023/10/22 09:19:37;;;;;;;2.78;0.60;;;14.10;53.20;;;;;;5053592;28;20064;-74
2023/10/22 09:22:04;;;;;;;1.98;0.65;;;14.30;52.50;;;;;;5053690;28;20029;-72
2023/10/22 09:24:32;;;;;;;4.05;1.30;;;14.40;53.30;;;;;;5053914;28;20030;-73
2023/10/22 09:26:58;;;;;;;3.03;0.88;;;14.60;51.50;;;;;;5052464;28;20031;-72
2023/10/22 09:29:24;;;;;;;4.70;0.93;;;14.60;51.10;;;;;;5053395;28;20099;-73
2023/10/22 09:31:54;;;;;;;3.00;0.90;;;14.40;51.30;;;;;;5053166;28;20017;-73
2023/10/22 09:34:33;;;;;;;2.33;0.82;;;14.00;52.80;;;;;;5053394;28;20048;-72
2023/10/22 09:36:59;;;;;;;6.03;1.33;;;14.10;53.80;;;;;;5053506;28;20473;-72
2023/10/22 09:39:38;;;;;;;4.13;0.80;;;13.80;54.90;;;;;;5053554;28;20078;-72
2023/10/22 09:42:05;;;;;;;4.35;1.38;;;13.90;55.10;;;;;;5053131;28;20024;-72
2023/10/22 09:44:32;;;;;;;2.05;0.80;;;13.80;54.90;;;;;;5053213;28;20032;-71
2023/10/22 09:47:03;;;;;;;3.33;0.90;;;13.60;55.30;;;;;;5053100;28;20429;-73
2023/10/22 09:49:30;;;;;;;3.53;0.95;;;13.40;56.30;;;;;;5052834;28;20060;-72
2023/10/22 09:51:59;;;;;;;2.45;0.90;;;13.30;56.80;;;;;;5051745;28;20028;-73
2023/10/22 09:54:37;;;;;;;4.55;0.90;;;13.20;57.30;;;;;;5052941;28;20464;-71
2023/10/22 09:57:08;;;;;;;4.03;1.40;;;13.70;56.20;;;;;;5050947;28;20067;-71
2023/10/22 09:59:34;;;;;;;3.75;0.90;;;13.90;54.90;;;;;;5052366;28;20017;-72
2023/10/22 10:02:00;;;;;;;2.67;1.10;;;14.10;54.30;;;;;;5052453;28;20094;-74
2023/10/22 10:04:26;;;;;;;3.35;1.23;;;14.40;53.30;;;;;;5052483;28;20110;-71
2023/10/22 10:06:53;;;;;;;1.95;0.77;;;14.40;53.50;;;;;;5052562;28;20577;-72
2023/10/22 10:09:21;;;;;;;4.35;0.85;;;14.40;53.90;;;;;;5052026;28;20075;-72
2023/10/22 10:11:47;;;;;;;2.97;1.02;;;14.50;53.70;;;;;;5052393;28;20021;-73
2023/10/22 10:14:31;;;;;;;1.92;0.93;;;14.90;52.90;;;;;;5052551;28;20024;-72
2023/10/22 10:17:01;;;;;;;4.22;0.90;;;15.30;52.10;;;;;;5049840;28;20028;-72
2023/10/22 10:19:26;;;;;;;3.17;0.98;;;15.70;52.00;;;;;;5052364;28;20102;-72
2023/10/22 10:21:53;;;;;;;5.97;1.20;;;16.10;50.30;;;;;;5067789;28;20426;-72
2023/10/22 10:24:28;;;;;;;2.70;1.00;;;16.60;47.80;;;;;;5052118;28;20466;-71
2023/10/22 10:26:57;;;;;;;1.90;0.90;;;16.50;47.80;;;;;;5052056;28;20029;-72
2023/10/22 10:29:24;;;;;;;2.33;0.70;;;16.70;47.10;;;;;;5055315;28;20025;-76
2023/10/22 10:31:52;;;;;;;1.88;0.80;;;16.90;46.20;;;;;;5056041;28;20029;-73
2023/10/22 10:34:36;;;;;;;4.07;1.00;;;16.80;47.10;;;;;;5053649;28;20087;-74
2023/10/22 10:37:22;;;;;;;2.97;0.70;;;16.30;46.90;;;;;;5054180;28;20044;-72
2023/10/22 10:39:48;;;;;;;;;;;16.10;47.60;;;;;;5055411;28;20036;-73
2023/10/22 10:42:36;;;;;;;5.55;1.40;;;16.30;47.00;;;;;;5054709;28;19916;-73
2023/10/22 10:45:07;;;;;;;2.90;1.00;;;16.50;46.40;;;;;;5054060;28;20100;-72
2023/10/22 10:47:34;;;;;;;2.88;0.90;;;16.90;44.50;;;;;;5056053;28;20017;-73
2023/10/22 10:50:10;;;;;;;4.10;1.05;;;16.60;45.40;;;;;;5056339;28;20052;-72
2023/10/22 10:52:48;;;;;;;4.85;1.10;;;16.10;46.20;;;;;;5055200;28;20024;-71
2023/10/22 10:55:19;;;;;;;4.35;1.20;;;15.60;47.90;;;;;;5056079;28;20025;-72
2023/10/22 10:57:48;;;;;;;2.97;1.10;;;16.10;47.30;;;;;;5056369;28;20126;-73
2023/10/22 11:00:19;;;;;;;2.97;1.15;;;16.50;44.90;;;;;;5056481;28;20029;-73
2023/10/22 11:02:49;;;;;;;3.08;0.95;;;16.80;44.70;;;;;;5055903;28;20477;-73
2023/10/22 11:05:18;;;;;;;2.33;0.73;;;17.00;43.70;;;;;;5054956;28;20032;-72
2023/10/22 11:07:44;;;;;;;3.85;0.80;;;16.30;44.90;;;;;;5055841;28;20104;-71
2023/10/22 11:10:11;;;;;;;6.32;0.93;;;16.10;45.00;;;;;;5056071;28;20025;-72
2023/10/22 11:12:41;;;;;;;4.88;1.00;;;15.70;46.30;;;;;;5056074;28;20056;-72
2023/10/22 11:15:11;;;;;;;4.70;1.10;;;15.50;46.50;;;;;;5056131;28;20017;-73
2023/10/22 11:17:38;;;;;;;6.95;1.50;;;15.30;47.90;;;;;;5055829;28;20478;-72
2023/10/22 11:20:05;;;;;;;3.20;1.00;;;15.20;48.00;;;;;;5055811;28;20021;-72
2023/10/22 11:22:31;;;;;;;3.17;0.85;;;15.10;48.20;;;;;;5056115;28;20041;-73
2023/10/22 11:25:00;;;;;;;3.45;1.13;;;15.20;48.90;;;;;;5054820;28;20128;-73
2023/10/22 11:27:26;;;;;;;2.78;0.90;;;15.30;47.50;;;;;;5055683;28;20029;-72
2023/10/22 11:29:52;;;;;;;2.75;0.68;;;15.20;47.90;;;;;;5055626;28;20559;-74
2023/10/22 11:32:19;;;;;;;2.88;0.80;;;15.20;48.30;;;;;;5055862;28;20119;-73
2023/10/22 11:34:53;;;;;;;2.72;0.95;;;15.20;47.50;;;;;;5055264;28;20048;-72
2023/10/22 11:37:29;;;;;;;3.92;0.93;;;15.30;47.90;;;;;;5055544;28;20029;-73
2023/10/22 11:39:55;;;;;;;2.88;1.00;;;15.80;46.80;;;;;;5055575;28;20457;-72
2023/10/22 11:42:20;;;;;;;1.90;0.88;;;16.10;45.50;;;;;;5055235;28;20041;-73
2023/10/22 11:44:46;;;;;;;2.95;1.02;;;16.40;45.00;;;;;;5055275;28;20032;-72
2023/10/22 11:47:31;;;;;;;4.35;1.10;;;16.30;44.70;;;;;;5058251;28;20483;-73
2023/10/22 11:49:58;;;;;;;5.53;1.10;;;16.30;45.00;;;;;;5057319;28;20028;-73
2023/10/22 11:52:38;;;;;;;6.85;1.15;;;16.50;43.90;;;;;;5055135;28;20109;-74
2023/10/22 11:55:05;;;;;;;1.77;0.80;;;16.40;43.80;;;;;;5055834;28;20030;-73
2023/10/22 11:57:31;;;;;;;3.60;1.10;;;16.50;44.20;;;;;;5055406;28;20048;-78
2023/10/22 11:59:57;;;;;;;2.35;0.90;;;16.40;43.40;;;;;;5055238;28;20064;-72
2023/10/22 12:02:22;;;;;;;2.55;0.80;;;16.20;44.20;;;;;;5054964;28;20072;-72
2023/10/22 12:04:48;;;;;;;4.63;1.00;;;16.60;43.30;;;;;;5055172;28;20040;-73
2023/10/22 12:07:13;;;;;;;2.33;0.90;;;16.70;43.60;;;;;;5054888;28;20025;-72
2023/10/22 12:09:39;;;;;;;5.22;1.33;;;16.40;44.80;;;;;;5054836;28;20025;-72
2023/10/22 12:12:05;;;;;;;5.43;1.42;;;16.20;45.60;;;;;;5053945;28;20042;-72
2023/10/22 12:14:31;;;;;;;2.70;1.33;;;16.20;44.70;;;;;;5054704;28;20044;-72
2023/10/22 12:16:57;;;;;;;3.58;1.10;;;16.20;44.50;;;;;;5054883;28;20017;-72
2023/10/22 12:19:23;;;;;;;3.45;1.02;;;16.00;44.60;;;;;;5053315;28;20021;-73
2023/10/22 12:21:48;;;;;;;10.57;5.72;;;16.10;44.70;;;;;;5054446;28;20509;-74
2023/10/22 12:24:14;;;;;;;4.32;1.25;;;16.20;45.50;;;;;;5054556;28;20033;-75
2023/10/22 12:26:40;;;;;;;3.58;1.00;;;16.50;44.90;;;;;;5054568;28;20020;-74
2023/10/22 12:29:06;;;;;;;2.08;0.75;;;16.60;43.50;;;;;;5054676;28;20107;-73
2023/10/22 12:31:32;;;;;;;2.33;0.77;;;16.80;43.50;;;;;;5054600;28;20487;-77
2023/10/22 12:33:57;;;;;;;3.00;1.02;;;17.00;42.60;;;;;;5052929;28;20073;-75
2023/10/22 12:36:23;;;;;;;2.22;0.63;;;17.50;42.50;;;;;;5054452;28;20032;-75
2023/10/22 12:38:48;;;;;;;2.72;0.77;;;18.30;41.50;;;;;;5054400;28;20381;-71
2023/10/22 12:41:14;;;;;;;2.28;0.95;;;19.30;38.80;;;;;;5054233;28;20031;-72
2023/10/22 12:43:39;;;;;;;2.38;0.90;;;20.20;37.00;;;;;;5054482;28;20029;-72
2023/10/22 12:46:05;;;;;;;4.07;1.35;;;20.80;34.40;;;;;;5052726;28;20488;-72
2023/10/22 12:48:31;;;;;;;2.28;0.60;;;21.00;34.00;;;;;;5052747;28;20064;-72